Terminal Aerodrome Forecast
Issued by NWS

Home | Current Version | Previous Version | Graphics & Text | Print | Product List | Glossary On
Versions: 1 2 3 4 5 6 7 8 9 10 11 12 13 14 15 16 17 18 19 20 21 22 23 24 25 26 27 28
000
FTUS42 KMHX 011143
TAFOAJ
TAF
KOAJ 011143Z 0112/0212 00000KT 6SM BR BKN010
     FM011330 VRB03KT P6SM SCT025 SCT045
     FM020500 00000KT 2SM BR SCT005
      AMD LTD TO CLD VIS AND WIND=

USA.gov is the U.S. government's official web portal to all federal, state and local government web resources and services.